sensor_id;sensor_type;location;lat;lon;timestamp;temperature;humidity
17968;DHT22;9109;48.050;11.696;2023-08-24T03:47:23;22.70;99.90
17968;DHT22;9109;48.050;11.696;2023-08-24T03:50:25;22.60;99.90
17968;DHT22;9109;48.050;11.696;2023-08-24T03:53:28;22.50;99.90
17968;DHT22;9109;48.050;11.696;2023-08-24T03:56:30;22.50;99.90
17968;DHT22;9109;48.050;11.696;2023-08-24T03:59:35;22.50;99.90
17968;DHT22;9109;48.050;11.696;2023-08-24T04:02:42;22.60;99.90
17968;DHT22;9109;48.050;11.696;2023-08-24T04:05:47;22.60;99.90
17968;DHT22;9109;48.050;11.696;2023-08-24T04:09:03;22.60;99.90
17968;DHT22;9109;48.050;11.696;2023-08-24T04:12:08;22.60;99.90
17968;DHT22;9109;48.050;11.696;2023-08-24T04:15:11;22.60;99.90
17968;DHT22;9109;48.050;11.696;2023-08-24T04:18:43;22.50;99.90
17968;DHT22;9109;48.050;11.696;2023-08-24T04:22:05;22.50;99.90
17968;DHT22;9109;48.050;11.696;2023-08-24T04:29:22;22.40;99.90
17968;DHT22;9109;48.050;11.696;2023-08-24T04:32:26;22.40;99.90
17968;DHT22;9109;48.050;11.696;2023-08-24T04:35:36;22.40;99.90
17968;DHT22;9109;48.050;11.696;2023-08-24T04:38:40;22.40;99.90
17968;DHT22;9109;48.050;11.696;2023-08-24T04:41:45;22.40;99.90
17968;DHT22;9109;48.050;11.696;2023-08-24T04:44:48;22.50;99.90
17968;DHT22;9109;48.050;11.696;2023-08-24T04:47:59;22.50;99.90
17968;DHT22;9109;48.050;11.696;2023-08-24T04:51:13;22.50;99.90
17968;DHT22;9109;48.050;11.696;2023-08-24T04:54:23;22.60;99.90
17968;DHT22;9109;48.050;11.696;2023-08-24T04:57:25;22.50;99.90
17968;DHT22;9109;48.050;11.696;2023-08-24T05:00:30;22.50;99.90
17968;DHT22;9109;48.050;11.696;2023-08-24T05:03:42;22.50;99.90
17968;DHT22;9109;48.050;11.696;2023-08-24T05:06:48;22.40;99.90
17968;DHT22;9109;48.050;11.696;2023-08-24T05:09:59;22.40;99.90
17968;DHT22;9109;48.050;11.696;2023-08-24T05:13:04;22.50;99.90
17968;DHT22;9109;48.050;11.696;2023-08-24T05:16:09;22.50;99.90
17968;DHT22;9109;48.050;11.696;2023-08-24T05:19:11;22.50;99.90
17968;DHT22;9109;48.050;11.696;2023-08-24T05:22:22;22.50;99.90
17968;DHT22;9109;48.050;11.696;2023-08-24T05:25:24;22.50;99.90
17968;DHT22;9109;48.050;11.696;2023-08-24T05:28:31;22.50;99.90
17968;DHT22;9109;48.050;11.696;2023-08-24T05:31:34;22.50;99.90
17968;DHT22;9109;48.050;11.696;2023-08-24T05:34:36;22.60;99.90
17968;DHT22;9109;48.050;11.696;2023-08-24T05:37:46;22.60;99.90
17968;DHT22;9109;48.050;11.696;2023-08-24T05:40:53;22.60;99.90
17968;DHT22;9109;48.050;11.696;2023-08-24T05:43:57;22.70;99.90
17968;DHT22;9109;48.050;11.696;2023-08-24T05:47:02;22.80;99.90
17968;DHT22;9109;48.050;11.696;2023-08-24T05:50:08;22.80;99.90
17968;DHT22;9109;48.050;11.696;2023-08-24T05:53:15;22.80;99.90
17968;DHT22;9109;48.050;11.696;2023-08-24T05:56:18;22.90;99.90
17968;DHT22;9109;48.050;11.696;2023-08-24T05:59:24;22.90;99.90
17968;DHT22;9109;48.050;11.696;2023-08-24T06:02:35;22.90;99.90
17968;DHT22;9109;48.050;11.696;2023-08-24T06:05:50;22.80;99.90
17968;DHT22;9109;48.050;11.696;2023-08-24T06:09:34;22.90;99.90
17968;DHT22;9109;48.050;11.696;2023-08-24T06:13:16;23.00;99.90
17968;DHT22;9109;48.050;11.696;2023-08-24T06:16:59;23.00;99.90
17968;DHT22;9109;48.050;11.696;2023-08-24T06:20:17;23.10;99.90
17968;DHT22;9109;48.050;11.696;2023-08-24T06:23:45;23.10;99.90
17968;DHT22;9109;48.050;11.696;2023-08-24T06:31:11;23.20;99.90
17968;DHT22;9109;48.050;11.696;2023-08-24T06:34:19;23.30;99.90
17968;DHT22;9109;48.050;11.696;2023-08-24T06:37:29;23.40;99.90
17968;DHT22;9109;48.050;11.696;2023-08-24T06:40:31;23.40;99.90
17968;DHT22;9109;48.050;11.696;2023-08-24T06:43:33;23.50;99.90
17968;DHT22;9109;48.050;11.696;2023-08-24T06:46:36;23.50;99.90
17968;DHT22;9109;48.050;11.696;2023-08-24T06:49:38;23.60;99.90
17968;DHT22;9109;48.050;11.696;2023-08-24T06:52:40;23.80;99.90
17968;DHT22;9109;48.050;11.696;2023-08-24T06:55:42;23.90;99.90
17968;DHT22;9109;48.050;11.696;2023-08-24T06:58:45;24.00;99.90
17968;DHT22;9109;48.050;11.696;2023-08-24T07:01:48;24.20;99.90
17968;DHT22;9109;48.050;11.696;2023-08-24T07:04:50;24.30;99.90
17968;DHT22;9109;48.050;11.696;2023-08-24T07:07:53;24.40;99.90
17968;DHT22;9109;48.050;11.696;2023-08-24T07:10:55;24.50;99.90
17968;DHT22;9109;48.050;11.696;2023-08-24T07:13:57;24.60;99.90
17968;DHT22;9109;48.050;11.696;2023-08-24T07:17:00;24.70;99.90
17968;DHT22;9109;48.050;11.696;2023-08-24T07:20:12;24.80;99.90
17968;DHT22;9109;48.050;11.696;2023-08-24T07:23:15;24.90;99.90
17968;DHT22;9109;48.050;11.696;2023-08-24T07:26:18;25.00;99.90
17968;DHT22;9109;48.050;11.696;2023-08-24T07:29:20;25.10;99.90
17968;DHT22;9109;48.050;11.696;2023-08-24T07:32:24;25.20;99.90
17968;DHT22;9109;48.050;11.696;2023-08-24T07:35:26;25.30;99.90
17968;DHT22;9109;48.050;11.696;2023-08-24T07:38:31;25.40;99.90
17968;DHT22;9109;48.050;11.696;2023-08-24T07:41:34;25.60;99.90
17968;DHT22;9109;48.050;11.696;2023-08-24T07:44:39;25.70;99.90
17968;DHT22;9109;48.050;11.696;2023-08-24T07:47:45;25.70;99.90
17968;DHT22;9109;48.050;11.696;2023-08-24T07:50:47;25.90;99.90
17968;DHT22;9109;48.050;11.696;2023-08-24T07:53:49;25.90;99.90
17968;DHT22;9109;48.050;11.696;2023-08-24T07:56:52;26.00;99.90
17968;DHT22;9109;48.050;11.696;2023-08-24T07:59:55;26.20;99.90
17968;DHT22;9109;48.050;11.696;2023-08-24T08:02:59;26.30;99.90
17968;DHT22;9109;48.050;11.696;2023-08-24T08:06:01;26.40;99.80
17968;DHT22;9109;48.050;11.696;2023-08-24T08:09:04;26.50;99.30
17968;DHT22;9109;48.050;11.696;2023-08-24T08:12:06;26.60;98.90
17968;DHT22;9109;48.050;11.696;2023-08-24T08:15:09;26.70;98.90
17968;DHT22;9109;48.050;11.696;2023-08-24T08:18:12;26.90;99.30
17968;DHT22;9109;48.050;11.696;2023-08-24T08:21:15;27.00;98.90
17968;DHT22;9109;48.050;11.696;2023-08-24T08:24:19;27.10;98.20
17968;DHT22;9109;48.050;11.696;2023-08-24T08:27:21;27.30;97.60
17968;DHT22;9109;48.050;11.696;2023-08-24T08:30:23;27.40;96.30
17968;DHT22;9109;48.050;11.696;2023-08-24T08:33:31;27.40;96.50
17968;DHT22;9109;48.050;11.696;2023-08-24T08:36:34;27.40;96.70
17968;DHT22;9109;48.050;11.696;2023-08-24T08:39:36;27.40;96.40
17968;DHT22;9109;48.050;11.696;2023-08-24T08:42:38;27.50;95.70
17968;DHT22;9109;48.050;11.696;2023-08-24T08:45:40;27.50;95.80
17968;DHT22;9109;48.050;11.696;2023-08-24T08:48:45;27.70;95.60
17968;DHT22;9109;48.050;11.696;2023-08-24T08:51:47;27.80;94.80
17968;DHT22;9109;48.050;11.696;2023-08-24T08:54:50;27.90;94.40
17968;DHT22;9109;48.050;11.696;2023-08-24T08:57:53;27.90;94.70
17968;DHT22;9109;48.050;11.696;2023-08-24T09:00:58;28.00;94.00
17968;DHT22;9109;48.050;11.696;2023-08-24T09:04:06;28.20;93.70
17968;DHT22;9109;48.050;11.696;2023-08-24T09:07:08;28.20;93.60
17968;DHT22;9109;48.050;11.696;2023-08-24T09:10:12;28.20;94.20
17968;DHT22;9109;48.050;11.696;2023-08-24T09:13:14;28.30;93.20
17968;DHT22;9109;48.050;11.696;2023-08-24T09:16:18;28.30;92.80
17968;DHT22;9109;48.050;11.696;2023-08-24T09:19:28;28.40;93.00
17968;DHT22;9109;48.050;11.696;2023-08-24T09:22:35;28.50;92.10
17968;DHT22;9109;48.050;11.696;2023-08-24T09:25:45;28.50;91.80
17968;DHT22;9109;48.050;11.696;2023-08-24T09:28:50;28.70;91.80
17968;DHT22;9109;48.050;11.696;2023-08-24T09:31:52;28.80;91.50
17968;DHT22;9109;48.050;11.696;2023-08-24T09:34:58;28.70;91.10
17968;DHT22;9109;48.050;11.696;2023-08-24T09:38:17;28.60;91.20
17968;DHT22;9109;48.050;11.696;2023-08-24T09:41:20;28.60;91.70
17968;DHT22;9109;48.050;11.696;2023-08-24T09:44:22;28.70;91.80
17968;DHT22;9109;48.050;11.696;2023-08-24T09:47:24;28.90;90.90
17968;DHT22;9109;48.050;11.696;2023-08-24T09:50:28;29.10;91.00
17968;DHT22;9109;48.050;11.696;2023-08-24T09:53:33;29.20;90.40
17968;DHT22;9109;48.050;11.696;2023-08-24T09:56:38;29.20;90.20
17968;DHT22;9109;48.050;11.696;2023-08-24T09:59:43;29.40;90.70
17968;DHT22;9109;48.050;11.696;2023-08-24T10:02:50;29.60;89.30
17968;DHT22;9109;48.050;11.696;2023-08-24T10:05:56;29.90;89.60
17968;DHT22;9109;48.050;11.696;2023-08-24T10:09:01;29.90;85.90
17968;DHT22;9109;48.050;11.696;2023-08-24T10:12:07;29.80;87.40
17968;DHT22;9109;48.050;11.696;2023-08-24T10:15:10;30.00;86.50
17968;DHT22;9109;48.050;11.696;2023-08-24T10:18:13;30.20;85.30
17968;DHT22;9109;48.050;11.696;2023-08-24T10:21:18;30.20;84.50
17968;DHT22;9109;48.050;11.696;2023-08-24T10:24:20;30.40;84.20
17968;DHT22;9109;48.050;11.696;2023-08-24T10:27:23;30.50;83.00
17968;DHT22;9109;48.050;11.696;2023-08-24T10:30:25;30.60;80.30
17968;DHT22;9109;48.050;11.696;2023-08-24T10:33:30;30.60;78.00
17968;DHT22;9109;48.050;11.696;2023-08-24T10:36:38;30.50;80.40
17968;DHT22;9109;48.050;11.696;2023-08-24T10:39:44;30.50;78.90
17968;DHT22;9109;48.050;11.696;2023-08-24T10:42:48;30.50;78.70
17968;DHT22;9109;48.050;11.696;2023-08-24T10:45:57;30.70;78.50
17968;DHT22;9109;48.050;11.696;2023-08-24T10:48:59;30.80;77.10
17968;DHT22;9109;48.050;11.696;2023-08-24T10:52:19;30.80;74.40
17968;DHT22;9109;48.050;11.696;2023-08-24T10:55:23;30.80;71.30
17968;DHT22;9109;48.050;11.696;2023-08-24T10:58:25;30.80;74.10
17968;DHT22;9109;48.050;11.696;2023-08-24T11:01:27;30.90;69.40
17968;DHT22;9109;48.050;11.696;2023-08-24T11:04:34;31.10;67.90
17968;DHT22;9109;48.050;11.696;2023-08-24T11:07:48;31.30;71.80
17968;DHT22;9109;48.050;11.696;2023-08-24T11:10:50;31.40;73.00
17968;DHT22;9109;48.050;11.696;2023-08-24T11:14:13;31.20;74.50
17968;DHT22;9109;48.050;11.696;2023-08-24T11:17:21;31.20;74.40
17968;DHT22;9109;48.050;11.696;2023-08-24T11:20:23;31.20;75.90
17968;DHT22;9109;48.050;11.696;2023-08-24T11:23:28;31.30;74.60
17968;DHT22;9109;48.050;11.696;2023-08-24T11:26:30;31.20;74.80
17968;DHT22;9109;48.050;11.696;2023-08-24T11:29:32;31.20;75.70
17968;DHT22;9109;48.050;11.696;2023-08-24T11:32:34;31.30;74.20
17968;DHT22;9109;48.050;11.696;2023-08-24T11:35:36;31.50;73.00
17968;DHT22;9109;48.050;11.696;2023-08-24T11:38:41;31.50;74.50
17968;DHT22;9109;48.050;11.696;2023-08-24T11:41:43;31.80;74.40
17968;DHT22;9109;48.050;11.696;2023-08-24T11:44:46;31.80;73.00
17968;DHT22;9109;48.050;11.696;2023-08-24T11:47:49;31.90;73.70
17968;DHT22;9109;48.050;11.696;2023-08-24T11:50:51;31.80;73.20
17968;DHT22;9109;48.050;11.696;2023-08-24T11:53:56;32.00;73.10
17968;DHT22;9109;48.050;11.696;2023-08-24T11:57:00;32.00;72.10
17968;DHT22;9109;48.050;11.696;2023-08-24T12:00:02;32.20;70.90
17968;DHT22;9109;48.050;11.696;2023-08-24T12:03:05;32.20;72.90
17968;DHT22;9109;48.050;11.696;2023-08-24T12:06:11;32.40;66.20
17968;DHT22;9109;48.050;11.696;2023-08-24T12:09:15;32.50;62.80
17968;DHT22;9109;48.050;11.696;2023-08-24T12:12:18;32.60;60.50
17968;DHT22;9109;48.050;11.696;2023-08-24T12:15:21;32.60;63.30
17968;DHT22;9109;48.050;11.696;2023-08-24T12:18:23;32.70;63.00
17968;DHT22;9109;48.050;11.696;2023-08-24T12:21:25;32.60;60.60
17968;DHT22;9109;48.050;11.696;2023-08-24T12:24:29;32.70;63.00
17968;DHT22;9109;48.050;11.696;2023-08-24T12:27:32;32.90;63.90
17968;DHT22;9109;48.050;11.696;2023-08-24T12:30:43;32.90;60.50
17968;DHT22;9109;48.050;11.696;2023-08-24T12:33:47;32.70;63.70
17968;DHT22;9109;48.050;11.696;2023-08-24T12:36:59;32.70;63.50
17968;DHT22;9109;48.050;11.696;2023-08-24T12:40:02;32.70;62.50
17968;DHT22;9109;48.050;11.696;2023-08-24T12:43:06;33.00;62.10
17968;DHT22;9109;48.050;11.696;2023-08-24T12:46:08;33.10;61.20
17968;DHT22;9109;48.050;11.696;2023-08-24T12:49:10;33.20;61.30
17968;DHT22;9109;48.050;11.696;2023-08-24T12:52:12;33.30;59.90
17968;DHT22;9109;48.050;11.696;2023-08-24T12:55:16;33.30;60.10
17968;DHT22;9109;48.050;11.696;2023-08-24T12:58:19;32.90;57.10
17968;DHT22;9109;48.050;11.696;2023-08-24T13:01:21;32.80;57.50
17968;DHT22;9109;48.050;11.696;2023-08-24T13:04:23;32.70;58.80
17968;DHT22;9109;48.050;11.696;2023-08-24T13:07:25;32.60;60.80
17968;DHT22;9109;48.050;11.696;2023-08-24T13:10:28;32.70;61.30
17968;DHT22;9109;48.050;11.696;2023-08-24T13:13:31;33.00;61.40
17968;DHT22;9109;48.050;11.696;2023-08-24T13:16:33;33.00;61.30
17968;DHT22;9109;48.050;11.696;2023-08-24T13:19:35;33.10;60.60
17968;DHT22;9109;48.050;11.696;2023-08-24T13:22:37;33.10;61.60
17968;DHT22;9109;48.050;11.696;2023-08-24T13:25:40;33.10;63.70
17968;DHT22;9109;48.050;11.696;2023-08-24T13:28:42;33.20;63.00
17968;DHT22;9109;48.050;11.696;2023-08-24T13:31:44;33.30;61.20
17968;DHT22;9109;48.050;11.696;2023-08-24T13:34:46;33.20;61.60
17968;DHT22;9109;48.050;11.696;2023-08-24T13:37:48;33.20;60.60
17968;DHT22;9109;48.050;11.696;2023-08-24T13:40:53;33.40;60.40
17968;DHT22;9109;48.050;11.696;2023-08-24T13:43:55;33.20;59.50
17968;DHT22;9109;48.050;11.696;2023-08-24T13:46:57;33.20;59.10
17968;DHT22;9109;48.050;11.696;2023-08-24T13:49:59;33.10;57.70
17968;DHT22;9109;48.050;11.696;2023-08-24T13:53:01;33.40;60.10
17968;DHT22;9109;48.050;11.696;2023-08-24T13:56:05;33.50;60.60
17968;DHT22;9109;48.050;11.696;2023-08-24T13:59:07;33.70;60.00
17968;DHT22;9109;48.050;11.696;2023-08-24T14:02:09;33.60;60.50
17968;DHT22;9109;48.050;11.696;2023-08-24T14:05:12;33.60;59.20
17968;DHT22;9109;48.050;11.696;2023-08-24T14:08:14;33.60;57.50
17968;DHT22;9109;48.050;11.696;2023-08-24T14:11:17;33.60;58.40
17968;DHT22;9109;48.050;11.696;2023-08-24T14:14:19;33.60;58.20
17968;DHT22;9109;48.050;11.696;2023-08-24T14:17:21;33.40;58.50
17968;DHT22;9109;48.050;11.696;2023-08-24T14:20:23;33.20;58.20
17968;DHT22;9109;48.050;11.696;2023-08-24T14:23:25;33.10;58.10
17968;DHT22;9109;48.050;11.696;2023-08-24T14:26:29;33.10;59.20
17968;DHT22;9109;48.050;11.696;2023-08-24T14:29:31;33.20;59.50
17968;DHT22;9109;48.050;11.696;2023-08-24T14:32:33;33.20;58.90
17968;DHT22;9109;48.050;11.696;2023-08-24T14:35:35;33.30;59.40
17968;DHT22;9109;48.050;11.696;2023-08-24T14:38:38;33.20;58.00
17968;DHT22;9109;48.050;11.696;2023-08-24T14:41:42;33.20;57.70
17968;DHT22;9109;48.050;11.696;2023-08-24T14:44:44;33.10;58.20
17968;DHT22;9109;48.050;11.696;2023-08-24T14:47:46;33.10;57.20
17968;DHT22;9109;48.050;11.696;2023-08-24T14:50:49;33.00;56.90
17968;DHT22;9109;48.050;11.696;2023-08-24T14:53:51;33.00;57.40
17968;DHT22;9109;48.050;11.696;2023-08-24T14:56:54;33.00;57.30
17968;DHT22;9109;48.050;11.696;2023-08-24T14:59:59;33.10;57.90
17968;DHT22;9109;48.050;11.696;2023-08-24T15:03:01;33.10;58.80
17968;DHT22;9109;48.050;11.696;2023-08-24T15:06:05;33.10;58.70
17968;DHT22;9109;48.050;11.696;2023-08-24T15:09:08;33.10;59.00
17968;DHT22;9109;48.050;11.696;2023-08-24T15:12:12;33.10;59.00
17968;DHT22;9109;48.050;11.696;2023-08-24T15:15:14;33.10;60.30
17968;DHT22;9109;48.050;11.696;2023-08-24T15:18:17;33.00;60.40
17968;DHT22;9109;48.050;11.696;2023-08-24T15:21:19;32.80;60.50
17968;DHT22;9109;48.050;11.696;2023-08-24T15:24:22;32.70;61.50
17968;DHT22;9109;48.050;11.696;2023-08-24T15:27:25;32.70;62.30
17968;DHT22;9109;48.050;11.696;2023-08-24T15:30:27;32.70;62.40
17968;DHT22;9109;48.050;11.696;2023-08-24T15:33:30;32.60;61.90
17968;DHT22;9109;48.050;11.696;2023-08-24T15:36:32;32.70;63.10
17968;DHT22;9109;48.050;11.696;2023-08-24T15:39:36;32.60;61.70
17968;DHT22;9109;48.050;11.696;2023-08-24T15:42:41;32.60;62.10
17968;DHT22;9109;48.050;11.696;2023-08-24T15:45:44;32.50;61.50
17968;DHT22;9109;48.050;11.696;2023-08-24T15:48:46;32.60;61.90
17968;DHT22;9109;48.050;11.696;2023-08-24T15:51:48;32.60;62.30
17968;DHT22;9109;48.050;11.696;2023-08-24T15:54:50;32.50;61.20
17968;DHT22;9109;48.050;11.696;2023-08-24T15:57:54;32.60;61.30
17968;DHT22;9109;48.050;11.696;2023-08-24T16:00:56;32.60;61.10
17968;DHT22;9109;48.050;11.696;2023-08-24T16:03:58;32.50;61.50
17968;DHT22;9109;48.050;11.696;2023-08-24T16:07:00;32.50;60.90
17968;DHT22;9109;48.050;11.696;2023-08-24T16:10:03;32.50;61.20
17968;DHT22;9109;48.050;11.696;2023-08-24T16:13:08;32.40;61.00
17968;DHT22;9109;48.050;11.696;2023-08-24T16:16:10;32.30;61.70
17968;DHT22;9109;48.050;11.696;2023-08-24T16:19:12;32.40;61.70
17968;DHT22;9109;48.050;11.696;2023-08-24T16:22:14;32.30;62.20
17968;DHT22;9109;48.050;11.696;2023-08-24T16:25:17;32.30;62.50
17968;DHT22;9109;48.050;11.696;2023-08-24T16:28:20;32.30;63.00
17968;DHT22;9109;48.050;11.696;2023-08-24T16:31:23;32.30;63.40
17968;DHT22;9109;48.050;11.696;2023-08-24T16:34:25;32.20;63.70
17968;DHT22;9109;48.050;11.696;2023-08-24T16:37:27;32.20;64.40
17968;DHT22;9109;48.050;11.696;2023-08-24T16:40:33;32.10;65.10
17968;DHT22;9109;48.050;11.696;2023-08-24T16:43:37;32.00;65.20
17968;DHT22;9109;48.050;11.696;2023-08-24T16:46:39;31.80;65.40
17968;DHT22;9109;48.050;11.696;2023-08-24T16:49:41;31.80;66.10
17968;DHT22;9109;48.050;11.696;2023-08-24T16:52:43;31.70;66.20
17968;DHT22;9109;48.050;11.696;2023-08-24T16:55:45;31.60;66.60
17968;DHT22;9109;48.050;11.696;2023-08-24T16:58:49;31.50;66.80
17968;DHT22;9109;48.050;11.696;2023-08-24T17:01:51;31.40;67.40
17968;DHT22;9109;48.050;11.696;2023-08-24T17:04:55;31.30;67.70
17968;DHT22;9109;48.050;11.696;2023-08-24T17:08:05;31.30;68.00
17968;DHT22;9109;48.050;11.696;2023-08-24T17:11:07;31.30;68.40
17968;DHT22;9109;48.050;11.696;2023-08-24T17:14:11;31.30;69.10
17968;DHT22;9109;48.050;11.696;2023-08-24T17:17:13;31.20;69.20
17968;DHT22;9109;48.050;11.696;2023-08-24T17:20:16;31.10;70.00
17968;DHT22;9109;48.050;11.696;2023-08-24T17:23:19;31.10;70.00
17968;DHT22;9109;48.050;11.696;2023-08-24T17:26:21;31.00;71.20
17968;DHT22;9109;48.050;11.696;2023-08-24T17:29:25;30.90;70.90
17968;DHT22;9109;48.050;11.696;2023-08-24T17:32:27;30.90;71.20
17968;DHT22;9109;48.050;11.696;2023-08-24T17:35:29;30.70;72.20
17968;DHT22;9109;48.050;11.696;2023-08-24T17:38:31;30.70;72.50
17968;DHT22;9109;48.050;11.696;2023-08-24T17:41:35;30.70;72.60
17968;DHT22;9109;48.050;11.696;2023-08-24T17:44:42;30.70;72.90
17968;DHT22;9109;48.050;11.696;2023-08-24T17:47:44;30.60;73.60
17968;DHT22;9109;48.050;11.696;2023-08-24T17:50:56;30.60;74.00
17968;DHT22;9109;48.050;11.696;2023-08-24T17:53:58;30.50;74.80
17968;DHT22;9109;48.050;11.696;2023-08-24T17:57:02;30.30;76.00
17968;DHT22;9109;48.050;11.696;2023-08-24T18:00:11;30.10;77.70
17968;DHT22;9109;48.050;11.696;2023-08-24T18:03:21;29.90;78.90
17968;DHT22;9109;48.050;11.696;2023-08-24T18:06:26;29.80;79.80
17968;DHT22;9109;48.050;11.696;2023-08-24T18:09:28;29.70;80.40
17968;DHT22;9109;48.050;11.696;2023-08-24T18:12:31;29.80;80.40
17968;DHT22;9109;48.050;11.696;2023-08-24T18:15:35;29.70;80.70
17968;DHT22;9109;48.050;11.696;2023-08-24T18:18:39;29.60;81.10
17968;DHT22;9109;48.050;11.696;2023-08-24T18:21:45;29.60;81.40
17968;DHT22;9109;48.050;11.696;2023-08-24T18:24:50;29.60;81.60
17968;DHT22;9109;48.050;11.696;2023-08-24T18:27:57;29.50;81.80
17968;DHT22;9109;48.050;11.696;2023-08-24T18:31:02;29.50;82.20
17968;DHT22;9109;48.050;11.696;2023-08-24T18:34:08;29.40;83.10
17968;DHT22;9109;48.050;11.696;2023-08-24T18:37:14;29.30;83.70
17968;DHT22;9109;48.050;11.696;2023-08-24T18:40:17;29.30;84.40
17968;DHT22;9109;48.050;11.696;2023-08-24T18:43:21;29.30;85.50
17968;DHT22;9109;48.050;11.696;2023-08-24T18:46:25;29.20;86.20
17968;DHT22;9109;48.050;11.696;2023-08-24T18:49:31;29.20;87.10
17968;DHT22;9109;48.050;11.696;2023-08-24T18:52:34;29.10;88.00
17968;DHT22;9109;48.050;11.696;2023-08-24T18:55:37;29.00;88.80
17968;DHT22;9109;48.050;11.696;2023-08-24T18:58:40;29.00;89.40
17968;DHT22;9109;48.050;11.696;2023-08-24T19:01:47;29.00;90.00
17968;DHT22;9109;48.050;11.696;2023-08-24T19:05:05;28.90;90.50
17968;DHT22;9109;48.050;11.696;2023-08-24T19:08:52;28.80;91.10
17968;DHT22;9109;48.050;11.696;2023-08-24T19:12:09;28.80;91.70
17968;DHT22;9109;48.050;11.696;2023-08-24T19:15:27;28.70;91.80
17968;DHT22;9109;48.050;11.696;2023-08-24T19:18:51;28.70;92.20
17968;DHT22;9109;48.050;11.696;2023-08-24T19:22:08;28.60;92.60
17968;DHT22;9109;48.050;11.696;2023-08-24T19:25:35;28.50;93.10
17968;DHT22;9109;48.050;11.696;2023-08-24T19:29:01;28.60;93.20
17968;DHT22;9109;48.050;11.696;2023-08-24T19:46:46;28.30;95.10
17968;DHT22;9109;48.050;11.696;2023-08-24T19:49:43;28.30;95.30
17968;DHT22;9109;48.050;11.696;2023-08-24T19:52:49;28.20;95.90
17968;DHT22;9109;48.050;11.696;2023-08-24T19:55:53;28.20;95.90
17968;DHT22;9109;48.050;11.696;2023-08-24T19:58:55;28.20;96.10
17968;DHT22;9109;48.050;11.696;2023-08-24T20:02:02;28.20;96.20
17968;DHT22;9109;48.050;11.696;2023-08-24T20:05:10;28.20;96.20
17968;DHT22;9109;48.050;11.696;2023-08-24T20:08:13;28.20;96.40
17968;DHT22;9109;48.050;11.696;2023-08-24T20:19:26;28.20;96.10
17968;DHT22;9109;48.050;11.696;2023-08-24T20:22:36;28.10;96.50
17968;DHT22;9109;48.050;11.696;2023-08-24T20:25:42;28.00;96.90
17968;DHT22;9109;48.050;11.696;2023-08-24T20:28:44;28.00;97.20
17968;DHT22;9109;48.050;11.696;2023-08-24T20:31:48;28.00;97.30
17968;DHT22;9109;48.050;11.696;2023-08-24T20:34:53;27.90;98.10
17968;DHT22;9109;48.050;11.696;2023-08-24T20:37:58;27.80;98.90
17968;DHT22;9109;48.050;11.696;2023-08-24T20:41:02;27.80;99.20
17968;DHT22;9109;48.050;11.696;2023-08-24T20:44:07;27.80;98.90
17968;DHT22;9109;48.050;11.696;2023-08-24T20:50:16;27.90;98.30
17968;DHT22;9109;48.050;11.696;2023-08-24T20:53:34;28.00;97.80
17968;DHT22;9109;48.050;11.696;2023-08-24T20:56:36;27.80;98.60
17968;DHT22;9109;48.050;11.696;2023-08-24T20:59:44;26.90;96.30
17968;DHT22;9109;48.050;11.696;2023-08-24T21:02:48;26.00;98.50
17968;DHT22;9109;48.050;11.696;2023-08-24T21:06:05;25.70;99.90
17968;DHT22;9109;48.050;11.696;2023-08-24T21:09:13;25.60;99.90
17968;DHT22;9109;48.050;11.696;2023-08-24T21:12:21;25.40;99.90
17968;DHT22;9109;48.050;11.696;2023-08-24T21:15:28;25.30;99.90
17968;DHT22;9109;48.050;11.696;2023-08-24T21:18:30;25.00;99.90
17968;DHT22;9109;48.050;11.696;2023-08-24T21:21:46;24.80;99.90
17968;DHT22;9109;48.050;11.696;2023-08-24T21:24:52;24.80;99.90
17968;DHT22;9109;48.050;11.696;2023-08-24T21:28:04;24.70;99.90
17968;DHT22;9109;48.050;11.696;2023-08-24T21:31:13;24.80;99.90
17968;DHT22;9109;48.050;11.696;2023-08-24T21:34:17;24.70;99.90
17968;DHT22;9109;48.050;11.696;2023-08-24T21:37:22;24.60;99.90
17968;DHT22;9109;48.050;11.696;2023-08-24T21:40:27;24.60;99.90
17968;DHT22;9109;48.050;11.696;2023-08-24T21:43:32;24.60;99.90
17968;DHT22;9109;48.050;11.696;2023-08-24T21:46:35;24.50;99.90
17968;DHT22;9109;48.050;11.696;2023-08-24T21:49:37;24.50;99.90
17968;DHT22;9109;48.050;11.696;2023-08-24T21:52:41;24.50;99.90
17968;DHT22;9109;48.050;11.696;2023-08-24T21:55:43;24.50;99.90
17968;DHT22;9109;48.050;11.696;2023-08-24T21:58:47;24.50;99.90
17968;DHT22;9109;48.050;11.696;2023-08-24T22:01:49;24.40;99.90
17968;DHT22;9109;48.050;11.696;2023-08-24T22:04:51;24.40;99.90
17968;DHT22;9109;48.050;11.696;2023-08-24T22:07:56;24.40;99.90
17968;DHT22;9109;48.050;11.696;2023-08-24T22:11:03;24.50;99.90
17968;DHT22;9109;48.050;11.696;2023-08-24T22:14:05;24.50;99.90
